ADDS METAR Data INFO
IDs: Format: Raw Decoded Include TAF

Data at: 1011 UTC 14 Dec 2017

KDWU 140956Z AUTO 32011G22KT 10SM BKN037 BKN050 02/M03 A2977 RMK AO2 SLP087 T00221033 FZRANO
KDWU 140856Z AUTO 29009G20KT 240V310 10SM OVC038 04/M02 A2971 RMK AO2 SLP063 T00441022 51049
KDWU 140756Z AUTO 31009G18KT 10SM BKN036 OVC047 05/M01 A2966 RMK AO2 PRESRR SLP048 T00501011
KDWU 140656Z AUTO 31016G23KT 10SM OVC041 06/M01 A2961 RMK AO2 SLP029 T00561011
KDWU 140556Z AUTO 28012G20KT 10SM BKN047 OVC055 08/M02 A2956 RMK AO2 PK WND 26032/0511 SLP013 T00781022 10089 20028 53017
KDWU 140456Z AUTO 27016G26KT 10SM OVC060 08/M04 A2952 RMK AO2 PK WND 29026/0456 SLP002 T00831039
KDWU 140356Z AUTO 23015G19KT 10SM BKN050 OVC070 08/M06 A2952 RMK AO2 PK WND 24026/0320 SLP000 T00781061 400781100
KDWU 140256Z AUTO 25016G19KT 10SM OVC060 08/M07 A2951 RMK AO2 SLP996 T00781067 58009
KDWU 140156Z AUTO 25012G17KT 10SM BKN060 OVC070 07/M08 A2952 RMK AO2 SLP001 T00721078
KDWU 140056Z AUTO 23004KT 10SM OVC060 04/M11 A2954 RMK AO2 SLP008 T00391111
KDWU 132356Z AUTO 00000KT 10SM OVC060 03/M11 A2954 RMK AO2 SLP008 T00281106 10028 20006 56017
KDWU 132256Z AUTO 00000KT 10SM CLR 02/M12 A2954 RMK AO2 SLP010 T00171117 FZRANO
KDWU 132156Z AUTO 12005KT 10SM BKN120 02/M11 A2955 RMK AO2 SLP011 T00221106 FZRANO
KDWU 132056Z AUTO 13007KT 10SM BKN100 OVC120 03/M13 A2959 RMK AO2 SLP025 T00281128 56067
KDWU 131956Z AUTO 12007KT 100V160 10SM BKN070 OVC100 02/M12 A2965 RMK AO2 SLP045 T00171117 FZRANO
KDWU 131856Z AUTO 18004KT 10SM OVC070 02/M13 A2972 RMK AO2 PRESFR SLP072 T00171128 FZRANO
KDWU 131656Z AUTO 00000KT 10SM CLR 00/M11 A2985 RMK AO2 SLP114 T00001106 FZRANO
KDWU 131556Z AUTO 18007KT 10SM BKN085 M02/M11 A2991 RMK AO2 SLP136 T10221111 FZRANO
KDWU 131456Z AUTO 19006KT 10SM SCT039 OVC085 M04/M11 A2996 RMK AO2 SLP152 T10441111 58015 FZRANO
KDWU 131356Z AUTO 26006KT 10SM OVC043 M06/M12 A2998 RMK AO2 SLP160 T10611117 FZRANO
KDWU 131256Z AUTO 00000KT 10SM OVC090 M07/M12 A2999 RMK AO2 SLP165 T10721117 FZRANO
KDWU 131156Z AUTO 00000KT 10SM OVC065 M09/M13 A3000 RMK AO2 SLP169 T10891128 11056 21100 55000 FZRANO
KDWU 131056Z AUTO 00000KT 10SM CLR M09/M14 A3000 RMK AO2 SLP168 T10941139 FZRANO
KDWU 130956Z AUTO 25003KT 10SM CLR M08/M13 A3000 RMK AO2 SLP168 T10831128 FZRANO
KDWU 130856Z AUTO 23004KT 10SM CLR M08/M13 A3000 RMK AO2 SLP168 T10781128 53003 FZRANO
KDWU 130756Z AUTO 23005KT 10SM CLR M07/M13 A3000 RMK AO2 SLP166 T10721128 FZRANO
KDWU 130656Z AUTO 27006KT 10SM SCT045 M06/M12 A3000 RMK AO2 SLP166 T10611117 FZRANO
KDWU 130556Z AUTO 31007KT 10SM SCT047 M06/M11 A3000 RMK AO2 SLP164 60000 T10561111 11033 21056 58001 FZRANO
KDWU 130505Z AUTO 31012G17KT 10SM SCT030 SCT034 BKN049 M05/M10 A3001 RMK AO2 FZRANO
KDWU 130456Z AUTO 31010G21KT 10SM BKN028 BKN035 OVC049 M04/M09 A3001 RMK AO2 SNE09 SLP168 P0000 T10441094 FZRANO
KDWU 130440Z AUTO 31006KT 10SM BKN028 BKN035 OVC047 M04/M08 A3001 RMK AO2 SNE09 P0000 FZRANO
KDWU 130408Z AUTO 31007KT 9SM -SN SCT027 BKN033 OVC055 M04/M08 A3001 RMK AO2 P0000 FZRANO
KDWU 130356Z AUTO VRB06KT 9SM -SN BKN029 OVC034 M04/M08 A3000 RMK AO2 SNB06 SLP166 P0000 T10391083 400891044 FZRANO
KDWU 130256Z AUTO 32007G17KT 10SM SCT047 OVC060 M04/M09 A3000 RMK AO2 SLP166 T10391089 52005 FZRANO
KDWU 130056Z AUTO 32009G16KT 10SM OVC060 M04/M08 A2999 RMK AO2 SLP162 T10391083 FZRANO
KDWU 122356Z AUTO 32010G14KT 10SM OVC070 M04/M07 A2999 RMK AO2 SNB20E40 SLP160 P0000 60000 T10391072 10006 21044 51022 FZRANO
KDWU 122256Z AUTO VRB06KT 10SM BKN070 M04/M08 A2996 RMK AO2 SNE36 SLP153 P0000 T10441078 FZRANO
KDWU 122232Z AUTO 31007KT 9SM -SN FEW017 SCT024 BKN050 M03/M07 A2996 RMK AO2 P0000 FZRANO
KDWU 122224Z AUTO 33007G14KT 280V340 2 1/2SM -SN FEW017 BKN033 OVC070 M03/M06 A2996 RMK AO2 VIS 3/4V5 P0000 FZRANO